sensor_id;sensor_type;location;lat;lon;timestamp;P1;durP1;ratioP1;P2;durP2;ratioP2
29358;SDS011;16347;53.232;6.556;2024-03-25T00:01:50;27.50;;;3.00;;
29358;SDS011;16347;53.232;6.556;2024-03-25T00:04:17;19.27;;;2.97;;
29358;SDS011;16347;53.232;6.556;2024-03-25T00:06:43;16.10;;;2.28;;
29358;SDS011;16347;53.232;6.556;2024-03-25T00:09:11;17.60;;;2.67;;
29358;SDS011;16347;53.232;6.556;2024-03-25T00:11:39;18.17;;;3.53;;
29358;SDS011;16347;53.232;6.556;2024-03-25T00:14:07;18.95;;;2.88;;
29358;SDS011;16347;53.232;6.556;2024-03-25T00:16:33;20.90;;;3.03;;
29358;SDS011;16347;53.232;6.556;2024-03-25T00:19:00;11.80;;;2.42;;
29358;SDS011;16347;53.232;6.556;2024-03-25T00:21:26;21.45;;;2.25;;
29358;SDS011;16347;53.232;6.556;2024-03-25T00:23:53;11.60;;;2.15;;
29358;SDS011;16347;53.232;6.556;2024-03-25T00:26:23;28.42;;;3.17;;
29358;SDS011;16347;53.232;6.556;2024-03-25T00:28:50;18.30;;;2.78;;
29358;SDS011;16347;53.232;6.556;2024-03-25T00:31:16;12.98;;;2.53;;
29358;SDS011;16347;53.232;6.556;2024-03-25T00:33:42;16.05;;;2.50;;
29358;SDS011;16347;53.232;6.556;2024-03-25T00:36:08;17.88;;;2.72;;
29358;SDS011;16347;53.232;6.556;2024-03-25T00:38:35;27.25;;;3.38;;
29358;SDS011;16347;53.232;6.556;2024-03-25T00:41:01;29.30;;;3.03;;
29358;SDS011;16347;53.232;6.556;2024-03-25T00:43:30;20.85;;;3.38;;
29358;SDS011;16347;53.232;6.556;2024-03-25T00:45:56;25.23;;;3.35;;
29358;SDS011;16347;53.232;6.556;2024-03-25T00:48:23;22.75;;;2.75;;
29358;SDS011;16347;53.232;6.556;2024-03-25T00:50:49;27.13;;;3.00;;
29358;SDS011;16347;53.232;6.556;2024-03-25T00:53:16;22.48;;;2.95;;
29358;SDS011;16347;53.232;6.556;2024-03-25T00:55:42;27.20;;;3.47;;
29358;SDS011;16347;53.232;6.556;2024-03-25T00:58:08;24.80;;;2.92;;
29358;SDS011;16347;53.232;6.556;2024-03-25T01:00:36;30.13;;;2.97;;
29358;SDS011;16347;53.232;6.556;2024-03-25T01:03:04;29.90;;;4.15;;
29358;SDS011;16347;53.232;6.556;2024-03-25T01:05:30;23.83;;;3.28;;
29358;SDS011;16347;53.232;6.556;2024-03-25T01:07:57;27.13;;;2.83;;
29358;SDS011;16347;53.232;6.556;2024-03-25T01:10:23;32.72;;;3.72;;
29358;SDS011;16347;53.232;6.556;2024-03-25T01:12:50;23.52;;;3.00;;
29358;SDS011;16347;53.232;6.556;2024-03-25T01:15:16;28.92;;;4.07;;
29358;SDS011;16347;53.232;6.556;2024-03-25T01:17:44;25.60;;;2.75;;
29358;SDS011;16347;53.232;6.556;2024-03-25T01:20:10;23.85;;;3.22;;
29358;SDS011;16347;53.232;6.556;2024-03-25T01:22:37;19.30;;;2.65;;
29358;SDS011;16347;53.232;6.556;2024-03-25T01:25:03;27.92;;;3.42;;
29358;SDS011;16347;53.232;6.556;2024-03-25T01:27:32;23.40;;;3.10;;
29358;SDS011;16347;53.232;6.556;2024-03-25T01:29:58;20.35;;;3.05;;
29358;SDS011;16347;53.232;6.556;2024-03-25T01:32:25;14.63;;;2.10;;
29358;SDS011;16347;53.232;6.556;2024-03-25T01:34:53;22.35;;;3.13;;
29358;SDS011;16347;53.232;6.556;2024-03-25T01:37:20;26.55;;;2.95;;
29358;SDS011;16347;53.232;6.556;2024-03-25T01:39:46;16.33;;;3.03;;
29358;SDS011;16347;53.232;6.556;2024-03-25T01:42:13;9.38;;;2.17;;
29358;SDS011;16347;53.232;6.556;2024-03-25T01:44:39;16.25;;;2.83;;
29358;SDS011;16347;53.232;6.556;2024-03-25T01:47:06;15.32;;;2.20;;
29358;SDS011;16347;53.232;6.556;2024-03-25T01:49:32;15.80;;;2.70;;
29358;SDS011;16347;53.232;6.556;2024-03-25T01:52:00;33.50;;;2.92;;
29358;SDS011;16347;53.232;6.556;2024-03-25T01:54:26;24.38;;;2.80;;
29358;SDS011;16347;53.232;6.556;2024-03-25T01:56:53;24.35;;;3.13;;
29358;SDS011;16347;53.232;6.556;2024-03-25T01:59:20;12.52;;;2.22;;
29358;SDS011;16347;53.232;6.556;2024-03-25T02:01:48;20.17;;;2.58;;
29358;SDS011;16347;53.232;6.556;2024-03-25T02:04:14;21.85;;;3.00;;
29358;SDS011;16347;53.232;6.556;2024-03-25T02:06:41;12.55;;;2.38;;
29358;SDS011;16347;53.232;6.556;2024-03-25T02:09:10;15.20;;;2.20;;
29358;SDS011;16347;53.232;6.556;2024-03-25T02:11:39;9.95;;;2.20;;
29358;SDS011;16347;53.232;6.556;2024-03-25T02:14:06;22.48;;;2.90;;
29358;SDS011;16347;53.232;6.556;2024-03-25T02:16:33;12.45;;;2.50;;
29358;SDS011;16347;53.232;6.556;2024-03-25T02:19:00;17.25;;;2.30;;
29358;SDS011;16347;53.232;6.556;2024-03-25T02:21:26;15.20;;;2.55;;
29358;SDS011;16347;53.232;6.556;2024-03-25T02:23:53;17.70;;;2.40;;
29358;SDS011;16347;53.232;6.556;2024-03-25T02:26:24;15.88;;;2.95;;
29358;SDS011;16347;53.232;6.556;2024-03-25T02:28:49;21.75;;;2.92;;
29358;SDS011;16347;53.232;6.556;2024-03-25T02:31:16;23.63;;;3.03;;
29358;SDS011;16347;53.232;6.556;2024-03-25T02:33:42;15.18;;;2.58;;
29358;SDS011;16347;53.232;6.556;2024-03-25T02:36:09;16.60;;;2.20;;
29358;SDS011;16347;53.232;6.556;2024-03-25T02:38:35;20.67;;;2.80;;
29358;SDS011;16347;53.232;6.556;2024-03-25T02:41:02;16.10;;;2.03;;
29358;SDS011;16347;53.232;6.556;2024-03-25T02:43:30;22.05;;;3.40;;
29358;SDS011;16347;53.232;6.556;2024-03-25T02:45:57;17.00;;;2.63;;
29358;SDS011;16347;53.232;6.556;2024-03-25T02:48:23;15.68;;;2.15;;
29358;SDS011;16347;53.232;6.556;2024-03-25T02:50:50;19.35;;;2.17;;
29358;SDS011;16347;53.232;6.556;2024-03-25T02:53:16;21.85;;;2.53;;
29358;SDS011;16347;53.232;6.556;2024-03-25T02:55:43;16.17;;;2.30;;
29358;SDS011;16347;53.232;6.556;2024-03-25T02:58:09;22.30;;;2.40;;
29358;SDS011;16347;53.232;6.556;2024-03-25T03:00:37;15.68;;;2.20;;
29358;SDS011;16347;53.232;6.556;2024-03-25T03:03:03;22.98;;;2.60;;
29358;SDS011;16347;53.232;6.556;2024-03-25T03:05:30;13.10;;;1.90;;
29358;SDS011;16347;53.232;6.556;2024-03-25T03:07:57;13.68;;;2.08;;
29358;SDS011;16347;53.232;6.556;2024-03-25T03:10:23;13.27;;;1.70;;
29358;SDS011;16347;53.232;6.556;2024-03-25T03:12:49;24.92;;;2.22;;
29358;SDS011;16347;53.232;6.556;2024-03-25T03:15:16;16.42;;;2.50;;
29358;SDS011;16347;53.232;6.556;2024-03-25T03:17:43;13.45;;;1.80;;
29358;SDS011;16347;53.232;6.556;2024-03-25T03:20:11;18.88;;;2.53;;
29358;SDS011;16347;53.232;6.556;2024-03-25T03:22:37;12.98;;;2.28;;
29358;SDS011;16347;53.232;6.556;2024-03-25T03:25:04;16.25;;;2.75;;
29358;SDS011;16347;53.232;6.556;2024-03-25T03:27:31;22.60;;;2.78;;
29358;SDS011;16347;53.232;6.556;2024-03-25T03:29:58;13.13;;;2.03;;
29358;SDS011;16347;53.232;6.556;2024-03-25T03:32:24;17.13;;;2.03;;
29358;SDS011;16347;53.232;6.556;2024-03-25T03:34:52;15.35;;;2.33;;
29358;SDS011;16347;53.232;6.556;2024-03-25T03:37:18;18.35;;;2.30;;
29358;SDS011;16347;53.232;6.556;2024-03-25T03:39:45;13.75;;;2.40;;
29358;SDS011;16347;53.232;6.556;2024-03-25T03:42:11;20.30;;;2.30;;
29358;SDS011;16347;53.232;6.556;2024-03-25T03:44:38;12.57;;;1.85;;
29358;SDS011;16347;53.232;6.556;2024-03-25T03:47:04;13.63;;;2.42;;
29358;SDS011;16347;53.232;6.556;2024-03-25T03:49:31;11.13;;;1.88;;
29358;SDS011;16347;53.232;6.556;2024-03-25T03:51:58;16.58;;;1.90;;
29358;SDS011;16347;53.232;6.556;2024-03-25T03:54:25;18.73;;;2.03;;
29358;SDS011;16347;53.232;6.556;2024-03-25T03:56:51;16.05;;;1.92;;
29358;SDS011;16347;53.232;6.556;2024-03-25T03:59:18;20.88;;;2.40;;
29358;SDS011;16347;53.232;6.556;2024-03-25T04:01:44;14.23;;;2.33;;
29358;SDS011;16347;53.232;6.556;2024-03-25T04:04:11;17.63;;;2.25;;
29358;SDS011;16347;53.232;6.556;2024-03-25T04:06:37;17.38;;;2.33;;
29358;SDS011;16347;53.232;6.556;2024-03-25T04:09:06;24.08;;;2.92;;
29358;SDS011;16347;53.232;6.556;2024-03-25T04:11:35;17.50;;;2.50;;
29358;SDS011;16347;53.232;6.556;2024-03-25T04:14:02;17.05;;;2.53;;
29358;SDS011;16347;53.232;6.556;2024-03-25T04:16:28;22.20;;;2.05;;
29358;SDS011;16347;53.232;6.556;2024-03-25T04:18:56;22.17;;;3.00;;
29358;SDS011;16347;53.232;6.556;2024-03-25T04:21:22;25.58;;;2.75;;
29358;SDS011;16347;53.232;6.556;2024-03-25T04:23:49;13.60;;;2.15;;
29358;SDS011;16347;53.232;6.556;2024-03-25T04:26:17;17.42;;;2.95;;
29358;SDS011;16347;53.232;6.556;2024-03-25T04:28:43;26.52;;;2.60;;
29358;SDS011;16347;53.232;6.556;2024-03-25T04:31:09;25.15;;;2.25;;
29358;SDS011;16347;53.232;6.556;2024-03-25T04:33:36;19.73;;;2.10;;
29358;SDS011;16347;53.232;6.556;2024-03-25T04:36:02;32.88;;;2.63;;
29358;SDS011;16347;53.232;6.556;2024-03-25T04:38:30;17.77;;;2.10;;
29358;SDS011;16347;53.232;6.556;2024-03-25T04:40:56;12.70;;;2.15;;
29358;SDS011;16347;53.232;6.556;2024-03-25T04:43:23;18.40;;;2.53;;
29358;SDS011;16347;53.232;6.556;2024-03-25T04:45:49;28.85;;;2.67;;
29358;SDS011;16347;53.232;6.556;2024-03-25T04:48:15;10.05;;;1.92;;
29358;SDS011;16347;53.232;6.556;2024-03-25T04:50:41;29.42;;;3.03;;
29358;SDS011;16347;53.232;6.556;2024-03-25T04:53:08;29.67;;;2.80;;
29358;SDS011;16347;53.232;6.556;2024-03-25T04:55:34;19.27;;;2.72;;
29358;SDS011;16347;53.232;6.556;2024-03-25T04:58:00;25.33;;;2.72;;
29358;SDS011;16347;53.232;6.556;2024-03-25T05:00:27;22.45;;;3.05;;
29358;SDS011;16347;53.232;6.556;2024-03-25T05:02:53;24.67;;;2.97;;
29358;SDS011;16347;53.232;6.556;2024-03-25T05:05:19;11.52;;;2.70;;
29358;SDS011;16347;53.232;6.556;2024-03-25T05:07:45;14.40;;;2.22;;
29358;SDS011;16347;53.232;6.556;2024-03-25T05:10:11;21.73;;;2.90;;
29358;SDS011;16347;53.232;6.556;2024-03-25T05:12:37;18.77;;;2.70;;
29358;SDS011;16347;53.232;6.556;2024-03-25T05:15:04;23.13;;;2.38;;
29358;SDS011;16347;53.232;6.556;2024-03-25T05:17:32;21.88;;;2.60;;
29358;SDS011;16347;53.232;6.556;2024-03-25T05:19:58;17.48;;;1.98;;
29358;SDS011;16347;53.232;6.556;2024-03-25T05:22:24;29.15;;;3.03;;
29358;SDS011;16347;53.232;6.556;2024-03-25T05:24:50;20.60;;;2.92;;
29358;SDS011;16347;53.232;6.556;2024-03-25T05:27:16;26.08;;;3.88;;
29358;SDS011;16347;53.232;6.556;2024-03-25T05:29:42;19.55;;;3.00;;
29358;SDS011;16347;53.232;6.556;2024-03-25T05:32:08;19.52;;;2.53;;
29358;SDS011;16347;53.232;6.556;2024-03-25T05:34:35;20.42;;;2.50;;
29358;SDS011;16347;53.232;6.556;2024-03-25T05:37:01;19.77;;;2.92;;
29358;SDS011;16347;53.232;6.556;2024-03-25T05:39:27;14.38;;;2.53;;
29358;SDS011;16347;53.232;6.556;2024-03-25T05:41:54;22.25;;;2.63;;
29358;SDS011;16347;53.232;6.556;2024-03-25T05:44:20;20.05;;;2.78;;
29358;SDS011;16347;53.232;6.556;2024-03-25T05:46:46;14.15;;;3.50;;
29358;SDS011;16347;53.232;6.556;2024-03-25T05:49:12;26.67;;;3.85;;
29358;SDS011;16347;53.232;6.556;2024-03-25T05:51:39;28.27;;;3.20;;
29358;SDS011;16347;53.232;6.556;2024-03-25T05:54:05;20.60;;;2.70;;
29358;SDS011;16347;53.232;6.556;2024-03-25T05:56:31;22.63;;;2.80;;
29358;SDS011;16347;53.232;6.556;2024-03-25T05:58:57;22.50;;;2.95;;
29358;SDS011;16347;53.232;6.556;2024-03-25T06:01:23;16.10;;;3.20;;
29358;SDS011;16347;53.232;6.556;2024-03-25T06:03:50;13.38;;;2.70;;
29358;SDS011;16347;53.232;6.556;2024-03-25T06:06:16;22.05;;;4.25;;
29358;SDS011;16347;53.232;6.556;2024-03-25T06:08:43;13.02;;;2.85;;
29358;SDS011;16347;53.232;6.556;2024-03-25T06:11:10;26.92;;;2.95;;
29358;SDS011;16347;53.232;6.556;2024-03-25T06:13:36;20.40;;;2.90;;
29358;SDS011;16347;53.232;6.556;2024-03-25T06:16:02;16.83;;;2.42;;
29358;SDS011;16347;53.232;6.556;2024-03-25T06:18:29;21.10;;;2.28;;
29358;SDS011;16347;53.232;6.556;2024-03-25T06:20:55;16.00;;;2.42;;
29358;SDS011;16347;53.232;6.556;2024-03-25T06:23:22;17.85;;;2.75;;
29358;SDS011;16347;53.232;6.556;2024-03-25T06:25:51;14.93;;;2.53;;
29358;SDS011;16347;53.232;6.556;2024-03-25T06:28:18;20.50;;;3.05;;
29358;SDS011;16347;53.232;6.556;2024-03-25T06:30:44;18.52;;;3.15;;
29358;SDS011;16347;53.232;6.556;2024-03-25T06:33:29;19.58;;;2.83;;
29358;SDS011;16347;53.232;6.556;2024-03-25T06:36:13;17.63;;;3.13;;
29358;SDS011;16347;53.232;6.556;2024-03-25T06:38:39;19.52;;;2.42;;
29358;SDS011;16347;53.232;6.556;2024-03-25T06:41:07;24.58;;;2.78;;
29358;SDS011;16347;53.232;6.556;2024-03-25T06:43:33;21.42;;;2.28;;
29358;SDS011;16347;53.232;6.556;2024-03-25T06:45:59;14.73;;;2.30;;
29358;SDS011;16347;53.232;6.556;2024-03-25T06:48:26;22.27;;;1.75;;
29358;SDS011;16347;53.232;6.556;2024-03-25T06:50:52;18.20;;;2.50;;
29358;SDS011;16347;53.232;6.556;2024-03-25T06:53:19;11.60;;;2.35;;
29358;SDS011;16347;53.232;6.556;2024-03-25T06:55:52;22.90;;;2.92;;
29358;SDS011;16347;53.232;6.556;2024-03-25T06:58:23;17.60;;;3.05;;
29358;SDS011;16347;53.232;6.556;2024-03-25T07:00:49;8.82;;;1.88;;
29358;SDS011;16347;53.232;6.556;2024-03-25T07:03:16;14.63;;;2.78;;
29358;SDS011;16347;53.232;6.556;2024-03-25T07:05:44;11.10;;;2.10;;
29358;SDS011;16347;53.232;6.556;2024-03-25T07:08:10;23.73;;;2.47;;
29358;SDS011;16347;53.232;6.556;2024-03-25T07:10:36;17.88;;;2.08;;
29358;SDS011;16347;53.232;6.556;2024-03-25T07:13:02;14.65;;;2.30;;
29358;SDS011;16347;53.232;6.556;2024-03-25T07:15:31;19.50;;;2.30;;
29358;SDS011;16347;53.232;6.556;2024-03-25T07:17:57;19.52;;;2.30;;
29358;SDS011;16347;53.232;6.556;2024-03-25T07:20:23;15.35;;;2.83;;
29358;SDS011;16347;53.232;6.556;2024-03-25T07:22:50;20.75;;;3.03;;
29358;SDS011;16347;53.232;6.556;2024-03-25T07:25:16;12.90;;;2.17;;
29358;SDS011;16347;53.232;6.556;2024-03-25T07:27:44;15.05;;;2.70;;
29358;SDS011;16347;53.232;6.556;2024-03-25T07:30:10;21.17;;;2.63;;
29358;SDS011;16347;53.232;6.556;2024-03-25T07:32:38;24.23;;;2.50;;
29358;SDS011;16347;53.232;6.556;2024-03-25T07:35:04;13.93;;;2.13;;
29358;SDS011;16347;53.232;6.556;2024-03-25T07:37:31;11.68;;;2.28;;
29358;SDS011;16347;53.232;6.556;2024-03-25T07:39:57;12.15;;;2.55;;
29358;SDS011;16347;53.232;6.556;2024-03-25T07:42:23;14.02;;;1.83;;
29358;SDS011;16347;53.232;6.556;2024-03-25T07:44:49;12.95;;;2.25;;
29358;SDS011;16347;53.232;6.556;2024-03-25T07:47:15;12.60;;;1.95;;
29358;SDS011;16347;53.232;6.556;2024-03-25T07:49:42;20.20;;;3.05;;
29358;SDS011;16347;53.232;6.556;2024-03-25T07:52:08;28.33;;;2.80;;
29358;SDS011;16347;53.232;6.556;2024-03-25T07:54:34;13.60;;;2.10;;
29358;SDS011;16347;53.232;6.556;2024-03-25T07:57:00;12.73;;;1.88;;
29358;SDS011;16347;53.232;6.556;2024-03-25T07:59:26;17.98;;;2.55;;
29358;SDS011;16347;53.232;6.556;2024-03-25T08:01:52;16.40;;;2.08;;
29358;SDS011;16347;53.232;6.556;2024-03-25T08:04:18;15.77;;;2.30;;
29358;SDS011;16347;53.232;6.556;2024-03-25T08:06:45;12.65;;;1.80;;
29358;SDS011;16347;53.232;6.556;2024-03-25T08:09:11;7.32;;;1.35;;
29358;SDS011;16347;53.232;6.556;2024-03-25T08:11:37;12.13;;;1.52;;
29358;SDS011;16347;53.232;6.556;2024-03-25T08:14:03;14.77;;;2.10;;
29358;SDS011;16347;53.232;6.556;2024-03-25T08:16:29;11.30;;;1.83;;
29358;SDS011;16347;53.232;6.556;2024-03-25T08:18:56;15.65;;;2.60;;
29358;SDS011;16347;53.232;6.556;2024-03-25T08:21:22;18.55;;;2.00;;
29358;SDS011;16347;53.232;6.556;2024-03-25T08:23:50;10.38;;;1.70;;
29358;SDS011;16347;53.232;6.556;2024-03-25T08:26:16;6.60;;;1.35;;
29358;SDS011;16347;53.232;6.556;2024-03-25T08:28:43;11.55;;;1.88;;
29358;SDS011;16347;53.232;6.556;2024-03-25T08:31:09;10.20;;;1.00;;
29358;SDS011;16347;53.232;6.556;2024-03-25T08:33:35;6.78;;;1.30;;
29358;SDS011;16347;53.232;6.556;2024-03-25T08:36:01;18.85;;;2.00;;
29358;SDS011;16347;53.232;6.556;2024-03-25T08:38:27;10.85;;;1.30;;
29358;SDS011;16347;53.232;6.556;2024-03-25T08:40:55;17.13;;;1.80;;
29358;SDS011;16347;53.232;6.556;2024-03-25T08:43:22;12.82;;;1.63;;
29358;SDS011;16347;53.232;6.556;2024-03-25T08:45:48;18.17;;;1.30;;
29358;SDS011;16347;53.232;6.556;2024-03-25T08:48:14;15.63;;;2.08;;
29358;SDS011;16347;53.232;6.556;2024-03-25T08:50:40;13.15;;;2.22;;
29358;SDS011;16347;53.232;6.556;2024-03-25T08:53:06;14.50;;;2.03;;
29358;SDS011;16347;53.232;6.556;2024-03-25T08:55:32;13.68;;;1.88;;
29358;SDS011;16347;53.232;6.556;2024-03-25T08:58:00;14.00;;;2.17;;
29358;SDS011;16347;53.232;6.556;2024-03-25T09:00:27;10.57;;;1.92;;
29358;SDS011;16347;53.232;6.556;2024-03-25T09:02:53;13.73;;;2.28;;
29358;SDS011;16347;53.232;6.556;2024-03-25T09:05:20;12.25;;;1.80;;
29358;SDS011;16347;53.232;6.556;2024-03-25T09:07:46;11.32;;;2.08;;
29358;SDS011;16347;53.232;6.556;2024-03-25T09:10:15;15.40;;;1.60;;
29358;SDS011;16347;53.232;6.556;2024-03-25T09:13:02;8.13;;;1.65;;
29358;SDS011;16347;53.232;6.556;2024-03-25T09:15:28;12.70;;;1.42;;
29358;SDS011;16347;53.232;6.556;2024-03-25T09:17:54;8.55;;;1.73;;
29358;SDS011;16347;53.232;6.556;2024-03-25T09:20:21;16.25;;;2.20;;
29358;SDS011;16347;53.232;6.556;2024-03-25T09:22:47;8.70;;;1.40;;
29358;SDS011;16347;53.232;6.556;2024-03-25T09:25:13;6.03;;;1.13;;
29358;SDS011;16347;53.232;6.556;2024-03-25T09:27:39;10.95;;;1.58;;
29358;SDS011;16347;53.232;6.556;2024-03-25T09:30:07;6.75;;;1.30;;
29358;SDS011;16347;53.232;6.556;2024-03-25T09:32:34;9.93;;;1.27;;
29358;SDS011;16347;53.232;6.556;2024-03-25T09:35:00;8.45;;;1.65;;
29358;SDS011;16347;53.232;6.556;2024-03-25T09:37:26;5.57;;;1.10;;
29358;SDS011;16347;53.232;6.556;2024-03-25T09:39:53;10.25;;;1.20;;
29358;SDS011;16347;53.232;6.556;2024-03-25T09:42:21;8.70;;;1.40;;
29358;SDS011;16347;53.232;6.556;2024-03-25T09:44:52;9.85;;;2.03;;
29358;SDS011;16347;53.232;6.556;2024-03-25T09:47:21;14.07;;;1.83;;
29358;SDS011;16347;53.232;6.556;2024-03-25T09:49:49;10.13;;;1.27;;
29358;SDS011;16347;53.232;6.556;2024-03-25T09:52:18;4.55;;;1.17;;
29358;SDS011;16347;53.232;6.556;2024-03-25T09:54:44;12.63;;;1.83;;
29358;SDS011;16347;53.232;6.556;2024-03-25T09:57:10;15.63;;;1.10;;
29358;SDS011;16347;53.232;6.556;2024-03-25T09:59:37;10.90;;;1.60;;
29358;SDS011;16347;53.232;6.556;2024-03-25T10:02:04;13.93;;;1.90;;
29358;SDS011;16347;53.232;6.556;2024-03-25T10:04:34;16.50;;;1.88;;
29358;SDS011;16347;53.232;6.556;2024-03-25T10:07:10;8.75;;;1.50;;
29358;SDS011;16347;53.232;6.556;2024-03-25T10:09:36;10.50;;;1.80;;
29358;SDS011;16347;53.232;6.556;2024-03-25T10:12:03;5.30;;;1.13;;
29358;SDS011;16347;53.232;6.556;2024-03-25T10:14:29;8.88;;;1.55;;
29358;SDS011;16347;53.232;6.556;2024-03-25T10:16:55;12.75;;;2.22;;
29358;SDS011;16347;53.232;6.556;2024-03-25T10:19:21;13.05;;;1.75;;
29358;SDS011;16347;53.232;6.556;2024-03-25T10:21:49;10.13;;;1.67;;
29358;SDS011;16347;53.232;6.556;2024-03-25T10:24:16;9.38;;;1.83;;
29358;SDS011;16347;53.232;6.556;2024-03-25T10:26:42;10.18;;;2.00;;
29358;SDS011;16347;53.232;6.556;2024-03-25T10:29:08;10.85;;;1.58;;
29358;SDS011;16347;53.232;6.556;2024-03-25T10:31:35;6.28;;;1.20;;
29358;SDS011;16347;53.232;6.556;2024-03-25T10:34:01;16.05;;;2.00;;
29358;SDS011;16347;53.232;6.556;2024-03-25T10:36:28;16.10;;;1.98;;
29358;SDS011;16347;53.232;6.556;2024-03-25T10:38:59;9.00;;;1.60;;
29358;SDS011;16347;53.232;6.556;2024-03-25T10:41:28;5.20;;;1.17;;
29358;SDS011;16347;53.232;6.556;2024-03-25T10:43:57;16.10;;;2.05;;
29358;SDS011;16347;53.232;6.556;2024-03-25T10:46:25;14.30;;;1.67;;
29358;SDS011;16347;53.232;6.556;2024-03-25T10:48:52;7.80;;;1.50;;
29358;SDS011;16347;53.232;6.556;2024-03-25T10:51:22;11.23;;;2.00;;
29358;SDS011;16347;53.232;6.556;2024-03-25T10:53:51;12.90;;;1.80;;
29358;SDS011;16347;53.232;6.556;2024-03-25T10:56:21;11.15;;;1.80;;
29358;SDS011;16347;53.232;6.556;2024-03-25T10:58:48;25.25;;;2.10;;
29358;SDS011;16347;53.232;6.556;2024-03-25T11:01:15;11.65;;;1.83;;
29358;SDS011;16347;53.232;6.556;2024-03-25T11:03:43;17.83;;;2.13;;
29358;SDS011;16347;53.232;6.556;2024-03-25T11:06:11;25.08;;;2.55;;
29358;SDS011;16347;53.232;6.556;2024-03-25T11:08:38;11.52;;;2.47;;
29358;SDS011;16347;53.232;6.556;2024-03-25T11:11:05;14.40;;;2.30;;
29358;SDS011;16347;53.232;6.556;2024-03-25T11:13:32;12.52;;;1.95;;
29358;SDS011;16347;53.232;6.556;2024-03-25T11:15:59;17.55;;;2.75;;
29358;SDS011;16347;53.232;6.556;2024-03-25T11:18:26;14.45;;;2.00;;
29358;SDS011;16347;53.232;6.556;2024-03-25T11:20:59;10.88;;;2.08;;
29358;SDS011;16347;53.232;6.556;2024-03-25T11:23:26;17.42;;;2.20;;
29358;SDS011;16347;53.232;6.556;2024-03-25T11:26:00;13.93;;;2.25;;
29358;SDS011;16347;53.232;6.556;2024-03-25T11:28:27;16.38;;;2.22;;
29358;SDS011;16347;53.232;6.556;2024-03-25T11:30:55;12.80;;;2.53;;
29358;SDS011;16347;53.232;6.556;2024-03-25T11:33:21;13.57;;;2.20;;
29358;SDS011;16347;53.232;6.556;2024-03-25T11:35:48;15.43;;;2.08;;
29358;SDS011;16347;53.232;6.556;2024-03-25T11:38:16;12.13;;;1.55;;
29358;SDS011;16347;53.232;6.556;2024-03-25T11:40:45;12.45;;;2.28;;
29358;SDS011;16347;53.232;6.556;2024-03-25T11:43:18;14.35;;;1.75;;
29358;SDS011;16347;53.232;6.556;2024-03-25T11:45:46;8.88;;;1.60;;
29358;SDS011;16347;53.232;6.556;2024-03-25T11:48:15;10.43;;;1.92;;
29358;SDS011;16347;53.232;6.556;2024-03-25T11:50:42;14.40;;;1.85;;
29358;SDS011;16347;53.232;6.556;2024-03-25T11:53:16;9.07;;;2.15;;
29358;SDS011;16347;53.232;6.556;2024-03-25T11:55:45;9.07;;;1.50;;
29358;SDS011;16347;53.232;6.556;2024-03-25T11:58:11;11.63;;;2.15;;
29358;SDS011;16347;53.232;6.556;2024-03-25T12:00:42;20.88;;;2.17;;
29358;SDS011;16347;53.232;6.556;2024-03-25T12:03:10;15.18;;;2.30;;
29358;SDS011;16347;53.232;6.556;2024-03-25T12:05:40;10.75;;;1.90;;
29358;SDS011;16347;53.232;6.556;2024-03-25T12:08:08;3.83;;;1.50;;
29358;SDS011;16347;53.232;6.556;2024-03-25T12:10:34;12.65;;;2.17;;
29358;SDS011;16347;53.232;6.556;2024-03-25T12:13:18;11.90;;;1.85;;
29358;SDS011;16347;53.232;6.556;2024-03-25T12:15:44;18.63;;;2.03;;
29358;SDS011;16347;53.232;6.556;2024-03-25T12:18:11;16.85;;;1.95;;
29358;SDS011;16347;53.232;6.556;2024-03-25T12:20:40;14.45;;;2.17;;
29358;SDS011;16347;53.232;6.556;2024-03-25T12:23:07;17.50;;;3.38;;
29358;SDS011;16347;53.232;6.556;2024-03-25T12:25:33;24.58;;;2.65;;
29358;SDS011;16347;53.232;6.556;2024-03-25T12:27:59;15.55;;;2.22;;
29358;SDS011;16347;53.232;6.556;2024-03-25T12:30:25;20.23;;;3.08;;
29358;SDS011;16347;53.232;6.556;2024-03-25T12:32:52;46.25;;;4.28;;
29358;SDS011;16347;53.232;6.556;2024-03-25T12:35:20;11.15;;;2.15;;
29358;SDS011;16347;53.232;6.556;2024-03-25T12:37:47;14.40;;;2.20;;
29358;SDS011;16347;53.232;6.556;2024-03-25T12:40:14;18.05;;;2.15;;
29358;SDS011;16347;53.232;6.556;2024-03-25T12:42:51;15.85;;;2.45;;
29358;SDS011;16347;53.232;6.556;2024-03-25T12:45:17;15.93;;;2.08;;
29358;SDS011;16347;53.232;6.556;2024-03-25T12:47:44;15.63;;;2.20;;
29358;SDS011;16347;53.232;6.556;2024-03-25T12:50:10;17.25;;;2.67;;
29358;SDS011;16347;53.232;6.556;2024-03-25T12:52:36;22.80;;;2.33;;
29358;SDS011;16347;53.232;6.556;2024-03-25T12:55:05;21.88;;;2.88;;
29358;SDS011;16347;53.232;6.556;2024-03-25T12:57:31;15.05;;;2.65;;
29358;SDS011;16347;53.232;6.556;2024-03-25T12:59:57;12.40;;;2.00;;
29358;SDS011;16347;53.232;6.556;2024-03-25T13:02:24;10.73;;;2.20;;
29358;SDS011;16347;53.232;6.556;2024-03-25T13:04:50;15.55;;;2.80;;
29358;SDS011;16347;53.232;6.556;2024-03-25T13:07:16;12.95;;;2.00;;
29358;SDS011;16347;53.232;6.556;2024-03-25T13:09:42;13.23;;;1.80;;
29358;SDS011;16347;53.232;6.556;2024-03-25T13:12:10;10.18;;;1.92;;
29358;SDS011;16347;53.232;6.556;2024-03-25T13:14:36;18.10;;;2.17;;
29358;SDS011;16347;53.232;6.556;2024-03-25T13:17:02;6.47;;;1.45;;
29358;SDS011;16347;53.232;6.556;2024-03-25T13:19:29;8.00;;;1.75;;
29358;SDS011;16347;53.232;6.556;2024-03-25T13:21:55;11.32;;;2.33;;
29358;SDS011;16347;53.232;6.556;2024-03-25T13:24:21;18.23;;;2.33;;
29358;SDS011;16347;53.232;6.556;2024-03-25T13:26:47;18.85;;;1.98;;
29358;SDS011;16347;53.232;6.556;2024-03-25T13:29:14;10.50;;;1.90;;
29358;SDS011;16347;53.232;6.556;2024-03-25T13:31:40;11.63;;;1.95;;
29358;SDS011;16347;53.232;6.556;2024-03-25T13:34:07;10.45;;;2.03;;
29358;SDS011;16347;53.232;6.556;2024-03-25T13:36:32;15.10;;;2.05;;
29358;SDS011;16347;53.232;6.556;2024-03-25T13:38:59;9.75;;;1.52;;
29358;SDS011;16347;53.232;6.556;2024-03-25T13:41:25;11.90;;;2.25;;
29358;SDS011;16347;53.232;6.556;2024-03-25T13:43:51;10.15;;;1.88;;
29358;SDS011;16347;53.232;6.556;2024-03-25T13:46:18;13.82;;;2.22;;
29358;SDS011;16347;53.232;6.556;2024-03-25T13:48:44;16.20;;;2.45;;
29358;SDS011;16347;53.232;6.556;2024-03-25T13:51:12;13.43;;;2.15;;
29358;SDS011;16347;53.232;6.556;2024-03-25T13:53:38;12.60;;;2.23;;
29358;SDS011;16347;53.232;6.556;2024-03-25T13:56:05;9.27;;;1.95;;
29358;SDS011;16347;53.232;6.556;2024-03-25T13:58:31;10.05;;;1.45;;
29358;SDS011;16347;53.232;6.556;2024-03-25T14:00:57;10.82;;;2.55;;
29358;SDS011;16347;53.232;6.556;2024-03-25T14:03:25;13.10;;;1.60;;
29358;SDS011;16347;53.232;6.556;2024-03-25T14:05:51;13.50;;;1.90;;
29358;SDS011;16347;53.232;6.556;2024-03-25T14:08:17;11.95;;;1.95;;
29358;SDS011;16347;53.232;6.556;2024-03-25T14:10:43;12.50;;;2.17;;
29358;SDS011;16347;53.232;6.556;2024-03-25T14:13:09;14.82;;;2.20;;
29358;SDS011;16347;53.232;6.556;2024-03-25T14:15:35;9.75;;;2.10;;
29358;SDS011;16347;53.232;6.556;2024-03-25T14:18:01;9.30;;;2.10;;
29358;SDS011;16347;53.232;6.556;2024-03-25T14:20:29;15.63;;;2.13;;
29358;SDS011;16347;53.232;6.556;2024-03-25T14:22:55;14.23;;;1.83;;
29358;SDS011;16347;53.232;6.556;2024-03-25T14:25:21;15.85;;;2.30;;
29358;SDS011;16347;53.232;6.556;2024-03-25T14:27:48;10.85;;;2.20;;
29358;SDS011;16347;53.232;6.556;2024-03-25T14:30:14;22.67;;;2.65;;
29358;SDS011;16347;53.232;6.556;2024-03-25T14:32:40;15.05;;;2.30;;
29358;SDS011;16347;53.232;6.556;2024-03-25T14:35:06;15.77;;;3.78;;